Latest Coastal Weather Observations for Truscott

IDD60701

Issued at 6:31 am CST Sunday 7 February 2016 (issued every 10 minutes, with the page automatically refreshed every 10 minutes)

About coastal observations | Map of coastal stations | Coastal observations for NT | Marine services | Other Formats
Station Details ID: 001020 Name: TRUSCOTT Lat: -14.09 Lon: 126.39 Height: 51.0 m
Data from the previous 72 hours. | See also: Recent months at Truscott
Date/Time
CST
Temp

°C
Wind Pressure Rain
since 9am
mm
Weather Cloud Vis
km
Sea
Height
m
Swell
Dir
 
Speed
knots
Gust
knots
hPa Trend Height
m
Period
s
Dir
07/06:30am 25.9 SE 3 4 1006.7 - 0.0 - - 10 - - - -
07/06:00am 26.0 SSE 3 4 1006.5 - 0.0 - - 10 - - - -
07/05:30am 26.1 SSE 3 4 1006.4 - 0.0 - - 10 - - - -
07/05:00am 26.8 S 5 6 1006.2 - 0.0 - - 10 - - - -
07/04:30am 26.9 SW 4 5 1005.5 - 0.0 - - 10 - - - -
07/04:00am 26.4 CALM 0 0 1006.1 - 0.0 - - 10 - - - -
07/03:30am 26.5 S 4 6 1006.1 - 0.0 - - 10 - - - -
07/03:00am 26.1 SSE 3 4 1006.2 - 0.0 - - 10 - - - -
07/02:30am 26.5 S 4 5 1006.3 - 0.0 - - 10 - - - -
07/02:00am 26.2 SSE 4 5 1006.5 - 0.0 - - 10 - - - -
07/01:30am 26.8 SW 4 6 1006.1 - 0.0 - - 10 - - - -
07/01:00am 27.1 SW 3 5 1007.1 - 0.0 - - 10 - - - -
07/12:30am 27.0 SW 5 7 1007.6 - 0.0 - - 10 - - - -
07/12:00am 27.6 SW 4 6 1007.9 - 0.0 - - 10 - - - -
 
Date/Time
CST
Temp

°C
Wind Pressure Rain
since 9am
mm
Weather Cloud Vis
km
Sea
Height
m
Swell
Dir
 
Speed
knots
Gust
knots
hPa Trend Height
m
Period
s
Dir
06/11:30pm 27.5 SW 5 6 1008.0 - 0.0 - Partly cloudy 10 - - - -
06/11:00pm 27.3 WSW 3 5 1007.8 - 0.0 - - 10 - - - -
06/10:30pm 27.4 CALM 0 4 1007.1 - 0.0 - - 10 - - - -
06/10:00pm 27.4 S 3 4 1007.5 - 0.0 - - 10 - - - -
06/09:30pm 27.2 E 1 4 1007.5 - 0.0 - Partly cloudy 10 - - - -
06/09:00pm 27.1 E 5 7 1007.2 - 0.0 - - 10 - - - -
06/08:30pm 27.1 E 6 10 1007.1 - 0.0 - - 10 - - - -
06/08:00pm 27.4 E 7 13 1006.7 - 0.0 - - 10 - - - -
06/07:30pm 27.8 E 6 9 1005.7 - 0.0 - - 10 - - - -
06/07:00pm 28.3 ESE 4 7 1005.8 - 0.0 - - 10 - - - -
06/06:30pm 29.0 SSW 9 12 1005.5 - 0.0 - - 10 - - - -
06/06:00pm 29.5 SW 7 11 1004.6 - 0.0 - Partly cloudy 10 - - - -
06/05:30pm 30.7 W 11 19 1004.2 - 0.0 - - 10 - - - -
06/05:00pm 32.5 WSW 10 15 1004.0 - 0.0 - Partly cloudy 10 - - - -
06/04:30pm 32.1 NNW 11 15 1003.3 - 0.0 - - 10 - - - -
06/04:00pm 32.6 NW 9 13 1004.0 - 0.0 - - 10 - - - -
06/03:30pm 32.6 W 9 13 1004.4 - 0.0 - - 10 - - - -
06/03:00pm 32.8 W 9 12 1004.8 - 0.0 - - 10 - - - -
06/02:30pm 32.4 W 8 11 1005.3 - 0.0 - - 10 - - - -
06/02:00pm 32.3 W 9 14 1005.7 - 0.0 - - 10 - - - -
06/01:30pm 31.9 WNW 9 14 1005.6 - 0.0 - - 10 - - - -
06/01:00pm 31.8 WNW 10 14 1006.5 - 0.0 - - 10 - - - -
06/12:30pm 31.6 W 9 13 1006.9 - 0.0 - Partly cloudy 10 - - - -
06/12:00pm 31.9 W 8 12 1007.2 - 0.0 - Partly cloudy 10 - - - -
06/11:30am 32.0 WSW 7 10 1007.7 - 0.0 - - 10 - - - -
06/11:00am 31.4 SW 10 15 1008.0 - 0.0 - - 10 - - - -
06/10:30am 30.7 SW 10 13 1007.7 - 0.0 - - 10 - - - -
06/10:00am 30.3 SW 9 14 1008.4 - 0.0 - - 10 - - - -
06/09:30am 29.0 SSW 7 10 1008.6 - 0.0 - - 10 - - - -
06/09:00am 28.3 S 8 11 1008.7 - 0.0 - Partly cloudy 10 - - - -
06/08:30am 28.3 SW 6 9 1008.4 - 0.0 - Cloudy 10 - - - -
06/08:00am 28.1 SW 5 7 1007.9 - 0.0 - Partly cloudy 10 - - - -
06/07:30am 27.9 WSW 5 7 1007.0 - 0.0 - Cloudy 10 - - - -
06/07:00am 27.8 W 7 11 1007.2 - 0.0 - Partly cloudy 10 - - - -
06/06:30am 27.7 W 6 9 1006.9 - 0.0 - Partly cloudy 10 - - - -
06/06:00am 27.6 W 7 11 1006.6 - 0.0 - - 10 - - - -
06/05:30am 27.6 W 7 11 1006.5 - 0.0 - - 10 - - - -
06/05:00am 27.5 W 8 11 1006.4 - 0.0 - - 10 - - - -
06/04:30am 27.7 W 8 13 1005.7 - 0.0 - - 10 - - - -
06/04:00am 27.7 W 8 11 1006.4 - 0.0 - Partly cloudy 10 - - - -
06/03:30am 27.5 W 6 9 1006.6 - 0.0 - - 10 - - - -
06/03:00am 27.4 WNW 5 8 1006.8 - 0.0 - Partly cloudy 10 - - - -
06/02:30am 27.1 W 3 4 1007.2 - 0.0 - Partly cloudy 10 - - - -
06/02:00am 26.8 S 2 3 1007.7 - 0.0 - Partly cloudy 10 - - - -
06/01:30am 27.4 W 3 5 1007.6 - 0.0 - Partly cloudy 10 - - - -
06/01:00am 27.4 W 2 4 1008.6 - 0.0 - Partly cloudy 10 - - - -
06/12:30am 27.8 WSW 3 4 1009.0 - 0.0 - - 10 - - - -
06/12:00am 27.9 W 6 7 1008.9 - 0.0 - - 10 - - - -
 
Date/Time
CST
Temp

°C
Wind Pressure Rain
since 9am
mm
Weather Cloud Vis
km
Sea
Height
m
Swell
Dir
 
Speed
knots
Gust
knots
hPa Trend Height
m
Period
s
Dir
05/11:30pm 28.0 W 5 9 1009.0 - 0.0 - Partly cloudy 10 - - - -
05/11:00pm 27.8 W 5 8 1008.8 - 0.0 - - 10 - - - -
05/10:30pm 27.9 W 5 6 1007.8 - 0.0 - Mostly clear 10 - - - -
05/10:00pm 28.2 WNW 6 10 1008.4 - 0.0 - Partly cloudy 10 - - - -
05/09:30pm 28.2 W 7 11 1008.1 - 0.0 - - 10 - - - -
05/09:00pm 28.3 W 8 12 1007.7 - 0.0 - - 10 - - - -
05/08:30pm 28.6 W 9 13 1007.0 - 0.0 - - 10 - - - -
05/08:00pm 28.7 WNW 11 16 1006.5 - 0.0 - - 10 - - - -
05/07:30pm 29.0 WNW 8 13 1005.9 - 0.0 - - 10 - - - -
05/07:00pm 29.7 NW 9 15 1005.9 - 0.0 - - 10 - - - -
05/06:30pm 30.4 WNW 10 14 1005.5 - 0.0 - - 10 - - - -
05/06:00pm 31.2 WNW 10 14 1005.3 - 0.0 - - 10 - - - -
05/05:30pm 32.0 W 9 14 1005.2 - 0.0 - - 10 - - - -
05/05:00pm 31.8 W 10 15 1004.9 - 0.0 - - 10 - - - -
05/04:30pm 32.2 WNW 9 15 1004.5 - 0.0 - - 10 - - - -
05/04:00pm 32.0 WNW 9 13 1005.2 - 0.0 - - 10 - - - -
05/03:30pm 32.3 W 9 13 1005.5 - 0.0 - - 10 - - - -
05/03:00pm 32.1 WNW 8 14 1005.8 - 0.0 - - 10 - - - -
05/02:30pm 32.2 WNW 8 12 1006.1 - 0.0 - - 10 - - - -
05/02:00pm 31.9 WNW 8 13 1006.6 - 0.0 - - 10 - - - -
05/01:30pm 31.7 WNW 9 13 1006.4 - 0.0 - - 10 - - - -
05/01:00pm 31.9 W 8 12 1007.4 - 0.0 - - 10 - - - -
05/12:30pm 31.5 W 9 13 1008.0 - 0.0 - Partly cloudy 10 - - - -
05/12:00pm 31.0 W 7 12 1008.3 - 0.0 - Partly cloudy 10 - - - -
05/11:30am 30.8 WSW 6 10 1008.7 - 0.0 - Partly cloudy 10 - - - -
05/11:00am 30.8 SW 8 11 1009.0 - 0.0 - Partly cloudy 10 - - - -
05/10:30am 30.8 SW 7 11 1008.6 - - - Mostly clear 10 - - - -
05/10:00am 29.8 SW 7 11 1009.2 - - - Partly cloudy 10 - - - -
05/09:30am 29.4 SW 8 11 1009.1 - - - - 10 - - - -
05/09:00am 28.6 SSW 6 8 1008.9 - - - - 10 - - - -
05/08:30am 27.7 SSW 5 7 1008.8 - - - - 10 - - - -
05/08:00am 26.9 SSW 5 6 1008.6 - - - - 10 - - - -
05/07:30am 26.2 S 4 5 1007.7 - - - - 10 - - - -
05/07:00am 25.8 S 3 5 1008.1 - - - Partly cloudy 10 - - - -
05/06:30am 26.3 S 4 5 1007.7 - - - Partly cloudy 10 - - - -
05/06:00am 26.6 S 4 5 1007.6 - - - Partly cloudy 10 - - - -
05/05:30am 26.6 S 4 5 1007.5 - - - - 10 - - - -
05/05:00am 27.0 S 5 6 1007.5 - - - - 10 - - - -
05/04:30am 27.2 SW 4 5 1006.9 - - - Mostly clear 10 - - - -
05/04:00am 27.3 WSW 3 5 1007.4 - - - Partly cloudy 10 - - - -
05/03:30am 27.5 WSW 4 5 1007.6 - - - Partly cloudy 10 - - - -
05/03:00am 27.7 W 4 6 1007.6 - - - - 10 - - - -
05/02:30am 27.8 W 4 6 1008.1 - - - - 10 - - - -
05/02:00am 27.9 W 5 6 1008.0 - - - - 10 - - - -
05/01:30am 28.1 W 5 7 1007.5 - - - - 10 - - - -
05/01:00am 28.0 W 6 9 1008.2 - - - - 10 - - - -
05/12:30am 27.9 WNW 5 7 1008.5 - - - - 10 - - - -
05/12:00am 28.0 W 4 7 1009.0 - - - - 10 - - - -
 
Date/Time
CST
Temp

°C
Wind Pressure Rain
since 9am
mm
Weather Cloud Vis
km
Sea
Height
m
Swell
Dir
 
Speed
knots
Gust
knots
hPa Trend Height
m
Period
s
Dir
04/11:30pm 28.2 W 5 8 1009.1 - - - - 10 - - - -
04/11:00pm 28.3 W 5 8 1009.0 - - - - 10 - - - -
04/10:30pm 28.3 W 6 9 1008.0 - - - - 10 - - - -
04/10:00pm 28.4 W 7 9 1008.4 - - - - 10 - - - -
04/09:30pm 28.4 W 6 8 1008.0 - - - - 10 - - - -
04/09:00pm 28.7 W 5 6 1007.8 - - - - 10 - - - -
04/08:30pm 28.9 WNW 6 7 1007.2 - - - - 10 - - - -
04/08:00pm 29.1 WNW 7 10 1006.8 - - - - 10 - - - -
04/07:30pm 29.4 WNW 7 11 1005.8 - - - - 10 - - - -
04/07:00pm 29.9 NW 7 10 1006.2 - - - - 10 - - - -
04/06:30pm 31.2 WNW 7 11 1006.1 - - - - 10 - - - -
04/06:00pm 31.7 W 7 10 1006.0 - - - - 10 - - - -
04/05:30pm 31.7 WNW 8 10 1005.7 - - - - 10 - - - -
04/05:00pm 31.6 W 8 11 1005.8 - - - - 10 - - - -
04/04:30pm 31.7 W 8 12 1005.3 - - - - 10 - - - -
04/04:00pm 31.8 W 9 13 1006.1 - - - - 10 - - - -
04/03:30pm 31.2 WNW 8 13 1006.2 - - - - 10 - - - -
04/03:00pm 31.6 W 8 13 1006.6 - - - - 10 - - - -
04/02:30pm 31.0 WNW 8 11 1007.0 - - - - 10 - - - -
04/02:00pm 30.8 WNW 7 10 1007.3 - - - - 10 - - - -
04/01:00pm 31.5 WSW 7 10 1008.3 - 0.0 - - 10 - - - -
04/12:30pm 30.9 WNW 7 10 1008.7 - 0.0 - - 10 - - - -
04/11:30am 30.5 WNW 8 11 1009.2 - 0.0 - Partly cloudy 10 - - - -
04/09:00am 28.8 SW 4 6 1009.5 - 0.0 - - 10 - - - -
04/08:30am 28.2 SW 4 5 1009.5 - 0.0 - - 10 - - - -

Other Formats:

Comma delimited format used in spreadsheet applications
http://www.bom.gov.au/fwo/IDD60701/IDD60701.95101.axf

JavaScript Object Notation format (JSON) in row-major order
http://www.bom.gov.au/fwo/IDD60701/IDD60701.95101.json